Time,TemperatureF,DewpointF,PressureIn,WindDirection,WindDirectionDegrees,WindSpeedMPH,WindSpeedGustMPH,Humidity,HourlyPrecipIn,Conditions,Clouds,dailyrainin,SoftwareType,DateUTC
2013-01-18 00:03:00,30.9,30.7,29.76,SE,135,1.0,2.0,99,0.00,,,0.00,meteohub,2013-01-18 08:03:00,
2013-01-18 00:08:00,30.9,30.7,29.76,East,90,2.0,2.0,99,0.00,,,0.00,meteohub,2013-01-18 08:08:00,
2013-01-18 00:13:00,30.9,30.7,29.76,NE,45,1.0,2.0,99,0.00,,,0.00,meteohub,2013-01-18 08:13:00,
2013-01-18 00:18:00,30.7,30.6,29.76,West,270,2.0,2.0,99,0.00,,,0.00,meteohub,2013-01-18 08:18:00,
2013-01-18 00:24:00,30.7,30.6,29.76,West,270,0.0,2.0,99,0.00,,,0.00,meteohub,2013-01-18 08:24:00,
2013-01-18 00:29:00,30.7,30.6,29.76,West,270,0.0,2.0,99,0.00,,,0.00,meteohub,2013-01-18 08:29:00,
2013-01-18 00:34:00,30.7,30.6,29.75,SW,225,2.0,2.0,99,0.00,,,0.00,meteohub,2013-01-18 08:34:00,
2013-01-18 00:39:00,30.6,30.4,29.75,SW,225,2.0,3.0,99,0.00,,,0.00,meteohub,2013-01-18 08:39:00,
2013-01-18 00:44:00,30.6,30.4,29.75,West,270,2.0,3.0,99,0.00,,,0.00,meteohub,2013-01-18 08:44:00,
2013-01-18 00:49:00,30.6,30.4,29.75,West,270,3.0,4.0,99,0.00,,,0.00,meteohub,2013-01-18 08:49:00,
2013-01-18 00:54:00,30.6,30.4,29.75,SW,225,2.0,4.0,99,0.00,,,0.00,meteohub,2013-01-18 08:54:00,
2013-01-18 00:59:00,30.6,30.4,29.75,SW,225,4.0,4.0,99,0.00,,,0.00,meteohub,2013-01-18 08:59:00,
2013-01-18 01:04:00,30.6,30.4,29.75,SW,225,2.0,3.0,99,0.00,,,0.00,meteohub,2013-01-18 09:04:00,
2013-01-18 01:09:00,30.6,30.4,29.75,SW,225,2.0,4.0,99,0.00,,,0.00,meteohub,2013-01-18 09:09:00,
2013-01-18 01:14:00,30.6,30.4,29.75,SW,225,3.0,4.0,99,0.00,,,0.00,meteohub,2013-01-18 09:14:00,
2013-01-18 01:19:00,30.4,30.2,29.75,South,180,2.0,4.0,99,0.00,,,0.00,meteohub,2013-01-18 09:19:00,
2013-01-18 01:24:00,30.4,30.2,29.75,South,180,2.0,4.0,99,0.00,,,0.00,meteohub,2013-01-18 09:24:00,
2013-01-18 01:29:00,30.4,30.2,29.75,West,270,2.0,4.0,99,0.00,,,0.00,meteohub,2013-01-18 09:29:00,
2013-01-18 01:34:00,30.4,30.2,29.75,West,270,0.0,2.0,99,0.00,,,0.00,meteohub,2013-01-18 09:34:00,
2013-01-18 01:40:00,30.4,30.2,29.75,SE,135,1.0,2.0,99,0.00,,,0.00,meteohub,2013-01-18 09:40:00,
2013-01-18 01:45:00,30.2,30.0,29.75,SW,225,2.0,2.0,99,0.00,,,0.00,meteohub,2013-01-18 09:45:00,
2013-01-18 01:50:00,30.4,30.2,29.75,SW,225,1.0,2.0,99,0.00,,,0.00,meteohub,2013-01-18 09:50:00,
2013-01-18 01:55:00,30.2,30.0,29.74,SW,225,1.0,2.0,99,0.00,,,0.00,meteohub,2013-01-18 09:55:00,
2013-01-18 02:00:00,30.2,30.0,29.74,SW,225,0.0,2.0,99,0.00,,,0.00,meteohub,2013-01-18 10:00:00,
2013-01-18 02:05:00,30.2,30.0,29.75,SW,225,1.0,2.0,99,0.00,,,0.00,meteohub,2013-01-18 10:05:00,
2013-01-18 02:10:00,30.2,30.0,29.75,SW,225,2.0,3.0,99,0.00,,,0.00,meteohub,2013-01-18 10:10:00,
2013-01-18 02:15:00,30.2,30.0,29.75,SW,225,0.0,3.0,99,0.00,,,0.00,meteohub,2013-01-18 10:15:00,
2013-01-18 02:20:00,30.2,30.0,29.75,West,270,0.0,2.0,99,0.00,,,0.00,meteohub,2013-01-18 10:20:00,
2013-01-18 02:25:00,30.2,30.0,29.75,West,270,0.0,2.0,99,0.00,,,0.00,meteohub,2013-01-18 10:25:00,
2013-01-18 02:30:00,30.2,30.0,29.75,SW,225,0.0,0.0,99,0.00,,,0.00,meteohub,2013-01-18 10:30:00,
2013-01-18 02:35:00,30.2,30.0,29.75,SW,225,0.0,0.0,99,0.00,,,0.00,meteohub,2013-01-18 10:35:00,
2013-01-18 02:40:00,30.2,30.0,29.75,SE,135,0.0,2.0,99,0.00,,,0.00,meteohub,2013-01-18 10:40:00,
2013-01-18 02:45:00,30.2,30.0,29.75,NE,45,1.0,2.0,99,0.00,,,0.00,meteohub,2013-01-18 10:45:00,
2013-01-18 02:50:00,30.2,30.0,29.75,SW,225,1.0,2.0,99,0.00,,,0.00,meteohub,2013-01-18 10:50:00,
2013-01-18 02:55:00,30.0,29.8,29.75,West,270,0.0,2.0,99,0.00,,,0.00,meteohub,2013-01-18 10:55:00,
2013-01-18 03:00:00,30.0,29.8,29.75,West,270,0.0,2.0,99,0.00,,,0.00,meteohub,2013-01-18 11:00:00,
2013-01-18 03:06:00,30.2,30.0,29.75,West,270,0.0,1.0,99,0.00,,,0.00,meteohub,2013-01-18 11:06:00,
2013-01-18 03:11:00,30.2,30.0,29.75,NW,315,0.0,0.0,99,0.00,,,0.00,meteohub,2013-01-18 11:11:00,
2013-01-18 03:16:00,30.2,30.0,29.75,South,180,0.0,2.0,99,0.00,,,0.00,meteohub,2013-01-18 11:16:00,
2013-01-18 03:21:00,30.2,30.0,29.74,South,180,0.0,2.0,99,0.00,,,0.00,meteohub,2013-01-18 11:21:00,
2013-01-18 03:26:00,30.4,30.2,29.74,SE,135,0.0,2.0,99,0.00,,,0.00,meteohub,2013-01-18 11:26:00,
2013-01-18 03:31:00,30.4,30.2,29.74,SE,135,2.0,2.0,99,0.00,,,0.00,meteohub,2013-01-18 11:31:00,
2013-01-18 03:36:00,30.2,30.0,29.74,NE,45,0.0,2.0,99,0.00,,,0.00,meteohub,2013-01-18 11:36:00,
2013-01-18 03:41:00,30.2,30.0,29.74,NE,45,2.0,2.0,99,0.00,,,0.00,meteohub,2013-01-18 11:41:00,
2013-01-18 03:46:00,30.2,30.0,29.73,West,270,1.0,2.0,99,0.00,,,0.00,meteohub,2013-01-18 11:46:00,
2013-01-18 03:51:00,30.2,30.0,29.73,West,270,2.0,2.0,99,0.00,,,0.00,meteohub,2013-01-18 11:51:00,
2013-01-18 03:56:00,30.2,30.0,29.73,West,270,0.0,2.0,99,0.00,,,0.00,meteohub,2013-01-18 11:56:00,
2013-01-18 04:01:00,30.2,29.7,29.73,West,270,0.0,2.0,98,0.00,,,0.00,meteohub,2013-01-18 12:01:00,
2013-01-18 04:06:00,30.4,29.8,29.73,NE,45,0.0,2.0,98,0.00,,,0.00,meteohub,2013-01-18 12:06:00,
2013-01-18 04:11:00,30.4,29.8,29.73,East,90,1.0,2.0,98,0.00,,,0.00,meteohub,2013-01-18 12:11:00,
2013-01-18 04:16:00,30.4,29.8,29.73,East,90,0.0,2.0,98,0.00,,,0.00,meteohub,2013-01-18 12:16:00,
2013-01-18 04:22:00,30.4,29.8,29.73,SE,135,0.0,2.0,98,0.00,,,0.00,meteohub,2013-01-18 12:22:00,
2013-01-18 04:27:00,30.4,29.8,29.73,NE,45,0.0,2.0,98,0.00,,,0.00,meteohub,2013-01-18 12:27:00,
2013-01-18 04:32:00,30.4,30.2,29.73,NE,45,0.0,2.0,99,0.00,,,0.00,meteohub,2013-01-18 12:32:00,
2013-01-18 04:37:00,30.4,29.8,29.73,NE,45,0.0,2.0,98,0.00,,,0.00,meteohub,2013-01-18 12:37:00,
2013-01-18 04:42:00,30.6,30.4,29.73,NE,45,0.0,0.0,99,0.00,,,0.00,meteohub,2013-01-18 12:42:00,
2013-01-18 04:47:00,30.6,30.0,29.72,NE,45,0.0,0.0,98,0.00,,,0.00,meteohub,2013-01-18 12:47:00,
2013-01-18 04:52:00,30.7,30.6,29.73,SW,225,0.0,0.0,99,0.00,,,0.00,meteohub,2013-01-18 12:52:00,
2013-01-18 04:57:00,30.7,30.2,29.72,East,90,2.0,2.0,98,0.00,,,0.00,meteohub,2013-01-18 12:57:00,
2013-01-18 05:02:00,30.6,30.0,29.72,East,90,1.0,2.0,98,0.00,,,0.00,meteohub,2013-01-18 13:02:00,
2013-01-18 05:07:00,30.6,30.0,29.72,SE,135,0.0,2.0,98,0.00,,,0.00,meteohub,2013-01-18 13:07:00,
2013-01-18 05:12:00,30.6,30.0,29.72,SW,225,2.0,2.0,98,0.00,,,0.00,meteohub,2013-01-18 13:12:00,
2013-01-18 05:17:00,30.4,29.8,29.72,SW,225,2.0,3.0,98,0.00,,,0.00,meteohub,2013-01-18 13:17:00,
2013-01-18 05:22:00,30.2,29.7,29.71,West,270,0.0,3.0,98,0.00,,,0.00,meteohub,2013-01-18 13:22:00,
2013-01-18 05:27:00,30.2,29.7,29.71,West,270,0.0,3.0,98,0.00,,,0.00,meteohub,2013-01-18 13:27:00,
2013-01-18 05:32:00,30.4,29.8,29.71,West,270,0.0,2.0,98,0.00,,,0.00,meteohub,2013-01-18 13:32:00,
2013-01-18 05:37:00,30.4,29.8,29.71,West,270,0.0,1.0,98,0.00,,,0.00,meteohub,2013-01-18 13:37:00,
2013-01-18 05:42:00,30.4,29.8,29.71,West,270,0.0,0.0,98,0.00,,,0.00,meteohub,2013-01-18 13:42:00,
2013-01-18 05:47:00,30.6,30.0,29.70,SW,225,0.0,2.0,98,0.00,,,0.00,meteohub,2013-01-18 13:47:00,
2013-01-18 05:52:00,30.4,29.8,29.71,SW,225,0.0,2.0,98,0.00,,,0.00,meteohub,2013-01-18 13:52:00,
2013-01-18 05:57:00,30.4,29.8,29.70,SW,225,1.0,2.0,98,0.00,,,0.00,meteohub,2013-01-18 13:57:00,
2013-01-18 06:02:00,30.4,29.8,29.70,SW,225,2.0,2.0,98,0.00,,,0.00,meteohub,2013-01-18 14:02:00,
2013-01-18 06:07:00,30.2,29.7,29.71,SW,225,2.0,2.0,98,0.00,,,0.00,meteohub,2013-01-18 14:07:00,
2013-01-18 06:12:00,30.4,29.8,29.71,SW,225,1.0,2.0,98,0.00,,,0.00,meteohub,2013-01-18 14:12:00,
2013-01-18 06:17:00,30.4,29.8,29.71,SW,225,0.0,2.0,98,0.00,,,0.00,meteohub,2013-01-18 14:17:00,
2013-01-18 06:22:00,30.4,29.8,29.72,SW,225,0.0,2.0,98,0.00,,,0.00,meteohub,2013-01-18 14:22:00,
2013-01-18 06:28:00,30.6,30.0,29.71,East,90,2.0,2.0,98,0.00,,,0.00,meteohub,2013-01-18 14:28:00,
2013-01-18 06:33:00,30.6,30.0,29.71,NE,45,2.0,2.0,98,0.00,,,0.00,meteohub,2013-01-18 14:33:00,
2013-01-18 06:38:00,30.6,30.0,29.72,NE,45,4.0,4.0,98,0.00,,,0.00,meteohub,2013-01-18 14:38:00,
2013-01-18 06:43:00,30.4,29.8,29.72,North,0,0.0,4.0,98,0.00,,,0.00,meteohub,2013-01-18 14:43:00,
2013-01-18 06:48:00,30.2,29.7,29.72,North,0,0.0,4.0,98,0.00,,,0.00,meteohub,2013-01-18 14:48:00,
2013-01-18 06:53:00,30.2,29.7,29.72,North,0,1.0,4.0,98,0.00,,,0.00,meteohub,2013-01-18 14:53:00,
2013-01-18 06:58:00,30.2,29.5,29.72,NE,45,2.0,2.0,97,0.00,,,0.00,meteohub,2013-01-18 14:58:00,
2013-01-18 07:03:00,30.2,29.5,29.72,NE,45,2.0,2.0,97,0.00,,,0.00,meteohub,2013-01-18 15:03:00,
2013-01-18 07:08:00,30.2,29.7,29.72,North,0,2.0,2.0,98,0.00,,,0.00,meteohub,2013-01-18 15:08:00,
2013-01-18 07:13:00,30.0,29.3,29.72,West,270,2.0,2.0,97,0.00,,,0.00,meteohub,2013-01-18 15:13:00,
2013-01-18 07:18:00,30.0,29.3,29.72,East,90,2.0,2.0,97,0.00,,,0.00,meteohub,2013-01-18 15:18:00,
2013-01-18 07:23:00,29.8,29.3,29.72,East,90,0.0,2.0,98,0.00,,,0.00,meteohub,2013-01-18 15:23:00,
2013-01-18 07:28:00,30.0,29.5,29.73,NE,45,2.0,2.0,98,0.00,,,0.00,meteohub,2013-01-18 15:28:00,
2013-01-18 07:33:00,29.8,29.3,29.73,West,270,1.0,2.0,98,0.00,,,0.00,meteohub,2013-01-18 15:33:00,
2013-01-18 07:38:00,29.8,29.3,29.73,West,270,1.0,2.0,98,0.00,,,0.00,meteohub,2013-01-18 15:38:00,
2013-01-18 07:44:00,29.8,29.1,29.73,NE,45,2.0,2.0,97,0.00,,,0.00,meteohub,2013-01-18 15:44:00,
2013-01-18 07:49:00,30.0,29.5,29.73,North,0,2.0,2.0,98,0.00,,,0.00,meteohub,2013-01-18 15:49:00,
2013-01-18 07:54:00,30.0,29.5,29.73,NE,45,2.0,2.0,98,0.00,,,0.00,meteohub,2013-01-18 15:54:00,
2013-01-18 07:59:00,30.0,29.5,29.73,NE,45,2.0,2.0,98,0.00,,,0.00,meteohub,2013-01-18 15:59:00,
2013-01-18 08:04:00,30.0,29.5,29.73,North,0,2.0,2.0,98,0.00,,,0.00,meteohub,2013-01-18 16:04:00,
2013-01-18 08:09:00,29.8,29.3,29.73,NE,45,0.0,2.0,98,0.00,,,0.00,meteohub,2013-01-18 16:09:00,
2013-01-18 08:14:00,29.8,29.3,29.74,NE,45,3.0,3.0,98,0.00,,,0.00,meteohub,2013-01-18 16:14:00,
2013-01-18 08:19:00,29.8,29.1,29.74,NE,45,2.0,2.0,97,0.00,,,0.00,meteohub,2013-01-18 16:19:00,
2013-01-18 08:24:00,29.7,29.1,29.74,NE,45,2.0,3.0,98,0.00,,,0.00,meteohub,2013-01-18 16:24:00,
2013-01-18 08:30:00,29.8,29.1,29.74,NE,45,0.0,4.0,97,0.00,,,0.00,meteohub,2013-01-18 16:30:00,
2013-01-18 08:35:00,30.0,29.5,29.74,NE,45,2.0,4.0,98,0.00,,,0.00,meteohub,2013-01-18 16:35:00,
2013-01-18 08:40:00,30.0,29.3,29.74,NE,45,1.0,4.0,97,0.00,,,0.00,meteohub,2013-01-18 16:40:00,
2013-01-18 08:45:00,30.0,29.3,29.75,East,90,2.0,4.0,97,0.00,,,0.00,meteohub,2013-01-18 16:45:00,
2013-01-18 08:50:00,30.0,29.3,29.75,SE,135,2.0,4.0,97,0.00,,,0.00,meteohub,2013-01-18 16:50:00,
2013-01-18 08:55:00,30.0,29.3,29.75,SE,135,1.0,2.0,97,0.00,,,0.00,meteohub,2013-01-18 16:55:00,
2013-01-18 09:00:00,30.0,29.3,29.75,East,90,2.0,2.0,97,0.00,,,0.00,meteohub,2013-01-18 17:00:00,
2013-01-18 09:05:00,29.8,29.1,29.75,East,90,2.0,2.0,97,0.00,,,0.00,meteohub,2013-01-18 17:05:00,
2013-01-18 09:10:00,29.8,29.1,29.75,NE,45,2.0,3.0,97,0.00,,,0.00,meteohub,2013-01-18 17:10:00,
2013-01-18 09:15:00,29.8,29.1,29.75,North,0,1.0,3.0,97,0.00,,,0.00,meteohub,2013-01-18 17:15:00,
2013-01-18 09:20:00,29.8,28.8,29.75,North,0,2.0,2.0,96,0.00,,,0.00,meteohub,2013-01-18 17:20:00,
2013-01-18 09:26:00,29.8,28.8,29.75,East,90,3.0,3.0,96,0.00,,,0.00,meteohub,2013-01-18 17:26:00,
2013-01-18 09:31:00,29.8,28.8,29.76,East,90,2.0,3.0,96,0.00,,,0.00,meteohub,2013-01-18 17:31:00,
2013-01-18 09:36:00,30.0,28.9,29.75,East,90,1.0,3.0,96,0.00,,,0.00,meteohub,2013-01-18 17:36:00,
2013-01-18 09:41:00,30.2,29.1,29.75,NE,45,0.0,3.0,96,0.00,,,0.00,meteohub,2013-01-18 17:41:00,
2013-01-18 09:46:00,30.2,29.1,29.76,SE,135,2.0,3.0,96,0.00,,,0.00,meteohub,2013-01-18 17:46:00,
2013-01-18 09:51:00,30.2,29.1,29.76,SW,225,0.0,3.0,96,0.00,,,0.00,meteohub,2013-01-18 17:51:00,
2013-01-18 09:56:00,30.2,29.1,29.76,North,0,1.0,3.0,96,0.00,,,0.00,meteohub,2013-01-18 17:56:00,
2013-01-18 10:01:00,30.4,29.3,29.75,East,90,2.0,2.0,96,0.00,,,0.00,meteohub,2013-01-18 18:01:00,
2013-01-18 10:06:00,30.4,29.3,29.75,NE,45,2.0,2.0,96,0.00,,,0.00,meteohub,2013-01-18 18:06:00,
2013-01-18 10:11:00,30.6,29.5,29.75,NE,45,2.0,2.0,96,0.00,,,0.00,meteohub,2013-01-18 18:11:00,
2013-01-18 10:17:00,30.7,29.7,29.75,East,90,2.0,2.0,96,0.00,,,0.00,meteohub,2013-01-18 18:17:00,
2013-01-18 10:22:00,30.7,29.5,29.76,NE,45,3.0,3.0,95,0.00,,,0.00,meteohub,2013-01-18 18:22:00,
2013-01-18 10:27:00,30.6,29.5,29.76,East,90,2.0,3.0,96,0.00,,,0.00,meteohub,2013-01-18 18:27:00,
2013-01-18 10:32:00,30.6,29.5,29.75,SE,135,2.0,3.0,96,0.00,,,0.00,meteohub,2013-01-18 18:32:00,
2013-01-18 10:37:00,30.9,29.7,29.76,North,0,2.0,3.0,95,0.00,,,0.00,meteohub,2013-01-18 18:37:00,
2013-01-18 10:42:00,30.9,29.7,29.76,SE,135,2.0,3.0,95,0.00,,,0.00,meteohub,2013-01-18 18:42:00,
2013-01-18 10:47:00,30.9,29.7,29.75,NW,315,2.0,3.0,95,0.00,,,0.00,meteohub,2013-01-18 18:47:00,
2013-01-18 10:52:00,30.9,29.7,29.75,SW,225,2.0,3.0,95,0.00,,,0.00,meteohub,2013-01-18 18:52:00,
2013-01-18 10:57:00,30.9,29.7,29.75,SSW,203,2.0,3.0,95,0.00,,,0.00,meteohub,2013-01-18 18:57:00,
2013-01-18 11:02:00,31.1,29.8,29.75,NE,45,2.0,3.0,95,0.00,,,0.00,meteohub,2013-01-18 19:02:00,
2013-01-18 11:07:00,31.3,30.0,29.75,South,180,1.0,3.0,95,0.00,,,0.00,meteohub,2013-01-18 19:07:00,
2013-01-18 11:12:00,31.5,30.2,29.75,East,90,1.0,2.0,95,0.00,,,0.00,meteohub,2013-01-18 19:12:00,
2013-01-18 11:17:00,31.6,30.2,29.75,NE,45,2.0,2.0,94,0.00,,,0.00,meteohub,2013-01-18 19:17:00,
2013-01-18 11:22:00,31.5,30.0,29.75,East,90,3.0,4.0,94,0.00,,,0.00,meteohub,2013-01-18 19:22:00,
2013-01-18 11:27:00,31.6,30.2,29.75,North,0,2.0,4.0,94,0.00,,,0.00,meteohub,2013-01-18 19:27:00,
2013-01-18 11:32:00,32.0,30.6,29.74,NE,45,1.0,4.0,94,0.00,,,0.00,meteohub,2013-01-18 19:32:00,
2013-01-18 11:37:00,32.4,30.7,29.74,South,180,2.0,3.0,94,0.00,,,0.00,meteohub,2013-01-18 19:37:00,
2013-01-18 11:42:00,32.4,30.7,29.74,SW,225,2.0,3.0,94,0.00,,,0.00,meteohub,2013-01-18 19:42:00,
2013-01-18 11:47:00,32.4,30.7,29.74,South,180,2.0,3.0,94,0.00,,,0.00,meteohub,2013-01-18 19:47:00,
2013-01-18 11:52:00,32.5,30.9,29.74,South,180,2.0,3.0,94,0.00,,,0.00,meteohub,2013-01-18 19:52:00,
2013-01-18 11:57:00,32.7,31.1,29.73,South,180,2.0,3.0,94,0.00,,,0.00,meteohub,2013-01-18 19:57:00,
2013-01-18 12:02:00,32.9,31.3,29.73,SW,225,2.0,3.0,94,0.00,,,0.00,meteohub,2013-01-18 20:02:00,
2013-01-18 12:07:00,33.1,31.5,29.73,East,90,2.0,2.0,94,0.00,,,0.00,meteohub,2013-01-18 20:07:00,
2013-01-18 12:12:00,33.4,31.8,29.73,SW,225,2.0,2.0,94,0.00,,,0.00,meteohub,2013-01-18 20:12:00,
2013-01-18 12:17:00,33.6,32.0,29.73,SW,225,2.0,3.0,94,0.00,,,0.00,meteohub,2013-01-18 20:17:00,
2013-01-18 12:22:00,33.4,31.8,29.73,SW,225,0.0,3.0,94,0.00,,,0.00,meteohub,2013-01-18 20:22:00,
2013-01-18 12:27:00,33.1,31.5,29.73,NE,45,2.0,4.0,94,0.00,,,0.00,meteohub,2013-01-18 20:27:00,
2013-01-18 12:32:00,32.9,31.1,29.73,SE,135,3.0,4.0,93,0.00,,,0.00,meteohub,2013-01-18 20:32:00,
2013-01-18 12:37:00,32.7,30.9,29.73,SE,135,2.0,4.0,93,0.00,,,0.00,meteohub,2013-01-18 20:37:00,
2013-01-18 12:43:00,32.9,31.1,29.73,SE,135,2.0,3.0,93,0.00,,,0.00,meteohub,2013-01-18 20:43:00,
2013-01-18 12:48:00,33.1,31.3,29.72,East,90,2.0,3.0,93,0.00,,,0.00,meteohub,2013-01-18 20:48:00,
2013-01-18 12:53:00,33.4,31.6,29.73,North,0,2.0,3.0,93,0.00,,,0.00,meteohub,2013-01-18 20:53:00,
2013-01-18 12:58:00,33.6,31.8,29.72,NW,315,2.0,3.0,93,0.00,,,0.00,meteohub,2013-01-18 20:58:00,
2013-01-18 13:03:00,33.8,32.2,29.72,SW,225,0.0,3.0,94,0.00,,,0.00,meteohub,2013-01-18 21:03:00,
2013-01-18 13:08:00,33.8,32.0,29.72,NE,45,2.0,3.0,93,0.00,,,0.00,meteohub,2013-01-18 21:08:00,
2013-01-18 13:13:00,33.8,32.0,29.71,East,90,2.0,3.0,93,0.00,,,0.00,meteohub,2013-01-18 21:13:00,
2013-01-18 13:18:00,34.0,32.2,29.71,East,90,1.0,3.0,93,0.00,,,0.00,meteohub,2013-01-18 21:18:00,
2013-01-18 13:23:00,34.3,32.7,29.71,NE,45,2.0,3.0,94,0.00,,,0.00,meteohub,2013-01-18 21:23:00,
2013-01-18 13:28:00,34.2,32.4,29.71,East,90,4.0,4.0,93,0.00,,,0.00,meteohub,2013-01-18 21:28:00,
2013-01-18 13:33:00,34.2,32.0,29.71,NE,45,3.0,3.0,92,0.00,,,0.00,meteohub,2013-01-18 21:33:00,
2013-01-18 13:38:00,34.2,32.0,29.71,NE,45,2.0,4.0,92,0.00,,,0.00,meteohub,2013-01-18 21:38:00,
2013-01-18 13:43:00,34.0,31.8,29.71,East,90,2.0,4.0,92,0.00,,,0.00,meteohub,2013-01-18 21:43:00,
2013-01-18 13:48:00,34.3,32.0,29.71,NE,45,2.0,4.0,91,0.00,,,0.00,meteohub,2013-01-18 21:48:00,
2013-01-18 13:53:00,34.5,32.7,29.71,East,90,2.0,4.0,93,0.00,,,0.00,meteohub,2013-01-18 21:53:00,
2013-01-18 13:58:00,34.5,34.0,29.71,NE,45,3.0,4.0,98,0.00,,,0.00,meteohub,2013-01-18 21:58:00,
2013-01-18 14:04:00,34.7,34.2,29.71,SE,135,0.0,4.0,98,0.00,,,0.00,meteohub,2013-01-18 22:04:00,
2013-01-18 14:09:00,35.2,34.7,29.71,SE,135,2.0,4.0,98,0.00,,,0.00,meteohub,2013-01-18 22:09:00,
2013-01-18 14:14:00,35.4,34.9,29.71,NE,45,2.0,4.0,98,0.00,,,0.00,meteohub,2013-01-18 22:14:00,
2013-01-18 14:19:00,35.4,34.7,29.71,North,0,3.0,3.0,97,0.00,,,0.00,meteohub,2013-01-18 22:19:00,
2013-01-18 14:24:00,35.4,34.3,29.71,East,90,2.0,3.0,96,0.00,,,0.00,meteohub,2013-01-18 22:24:00,
2013-01-18 14:29:00,35.4,34.3,29.71,NE,45,3.0,3.0,96,0.00,,,0.00,meteohub,2013-01-18 22:29:00,
2013-01-18 14:34:00,35.2,34.0,29.71,NE,45,1.0,3.0,95,0.00,,,0.00,meteohub,2013-01-18 22:34:00,
2013-01-18 14:39:00,35.4,34.3,29.71,East,90,1.0,3.0,96,0.00,,,0.00,meteohub,2013-01-18 22:39:00,
2013-01-18 14:44:00,35.4,34.3,29.71,SE,135,1.0,3.0,96,0.00,,,0.00,meteohub,2013-01-18 22:44:00,
2013-01-18 14:49:00,35.4,34.2,29.71,SE,135,3.0,3.0,95,0.00,,,0.00,meteohub,2013-01-18 22:49:00,
2013-01-18 14:54:00,35.2,34.2,29.71,NE,45,2.0,3.0,96,0.00,,,0.00,meteohub,2013-01-18 22:54:00,
2013-01-18 14:59:00,35.1,34.0,29.71,NE,45,2.0,3.0,96,0.00,,,0.00,meteohub,2013-01-18 22:59:00,
2013-01-18 15:05:00,35.1,34.0,29.71,NE,45,2.0,3.0,96,0.00,,,0.00,meteohub,2013-01-18 23:05:00,
2013-01-18 15:10:00,35.2,34.5,29.70,North,0,1.0,3.0,97,0.00,,,0.00,meteohub,2013-01-18 23:10:00,
2013-01-18 15:15:00,35.4,34.7,29.71,NW,315,0.0,3.0,97,0.00,,,0.00,meteohub,2013-01-18 23:15:00,
2013-01-18 15:20:00,35.6,34.9,29.71,North,0,2.0,2.0,97,0.00,,,0.00,meteohub,2013-01-18 23:20:00,
2013-01-18 15:25:00,35.6,34.5,29.71,ENE,68,4.0,4.0,96,0.00,,,0.00,meteohub,2013-01-18 23:25:00,
2013-01-18 15:30:00,35.4,34.3,29.71,NE,45,1.0,3.0,96,0.00,,,0.00,meteohub,2013-01-18 23:30:00,
2013-01-18 15:35:00,35.4,34.3,29.71,NE,45,0.0,4.0,96,0.00,,,0.00,meteohub,2013-01-18 23:35:00,
2013-01-18 15:40:00,35.6,34.9,29.71,North,0,1.0,3.0,97,0.00,,,0.00,meteohub,2013-01-18 23:40:00,
2013-01-18 15:45:00,35.6,34.5,29.71,East,90,2.0,2.0,96,0.00,,,0.00,meteohub,2013-01-18 23:45:00,
2013-01-18 15:50:00,35.4,34.3,29.71,East,90,2.0,2.0,96,0.00,,,0.00,meteohub,2013-01-18 23:50:00,
2013-01-18 15:55:00,35.4,34.7,29.71,NE,45,1.0,2.0,97,0.00,,,0.00,meteohub,2013-01-18 23:55:00,
2013-01-18 16:00:00,35.2,34.5,29.71,NE,45,2.0,2.0,97,0.00,,,0.00,meteohub,2013-01-19 00:00:00,
2013-01-18 16:05:00,35.1,34.3,29.71,North,0,2.0,3.0,97,0.00,,,0.00,meteohub,2013-01-19 00:05:00,
2013-01-18 16:10:00,35.1,34.3,29.71,NE,45,2.0,3.0,97,0.00,,,0.00,meteohub,2013-01-19 00:10:00,
2013-01-18 16:15:00,34.7,34.0,29.71,North,0,2.0,3.0,97,0.00,,,0.00,meteohub,2013-01-19 00:15:00,
2013-01-18 16:20:00,34.5,33.8,29.71,NE,45,2.0,4.0,97,0.00,,,0.00,meteohub,2013-01-19 00:20:00,
2013-01-18 16:26:00,34.5,33.8,29.70,East,90,0.0,4.0,97,0.00,,,0.00,meteohub,2013-01-19 00:26:00,
2013-01-18 16:31:00,34.5,34.0,29.70,NE,45,2.0,2.0,98,0.00,,,0.00,meteohub,2013-01-19 00:31:00,
2013-01-18 16:36:00,34.5,34.0,29.71,East,90,2.0,2.0,98,0.00,,,0.00,meteohub,2013-01-19 00:36:00,
2013-01-18 16:41:00,34.3,33.8,29.70,South,180,1.0,2.0,98,0.00,,,0.00,meteohub,2013-01-19 00:41:00,
2013-01-18 16:46:00,34.3,33.8,29.70,South,180,2.0,2.0,98,0.00,,,0.00,meteohub,2013-01-19 00:46:00,
2013-01-18 16:51:00,34.2,33.6,29.70,SW,225,3.0,3.0,98,0.00,,,0.00,meteohub,2013-01-19 00:51:00,
2013-01-18 16:56:00,34.0,33.8,29.70,South,180,2.0,3.0,99,0.00,,,0.00,meteohub,2013-01-19 00:56:00,
2013-01-18 17:01:00,33.8,33.6,29.70,South,180,1.0,3.0,99,0.00,,,0.00,meteohub,2013-01-19 01:01:00,
2013-01-18 17:06:00,33.8,33.6,29.70,South,180,2.0,3.0,99,0.00,,,0.00,meteohub,2013-01-19 01:06:00,
2013-01-18 17:11:00,33.6,33.4,29.70,South,180,0.0,3.0,99,0.00,,,0.00,meteohub,2013-01-19 01:11:00,
2013-01-18 17:17:00,33.6,33.4,29.70,NE,45,0.0,2.0,99,0.00,,,0.00,meteohub,2013-01-19 01:17:00,
2013-01-18 17:22:00,33.6,33.4,29.71,NE,45,0.0,2.0,99,0.00,,,0.00,meteohub,2013-01-19 01:22:00,
2013-01-18 17:27:00,33.6,33.4,29.70,NE,45,1.0,1.0,99,0.00,,,0.00,meteohub,2013-01-19 01:27:00,
2013-01-18 17:32:00,33.6,33.4,29.71,North,0,0.0,2.0,99,0.00,,,0.00,meteohub,2013-01-19 01:32:00,
2013-01-18 17:37:00,33.6,33.4,29.71,North,0,0.0,2.0,99,0.00,,,0.00,meteohub,2013-01-19 01:37:00,
2013-01-18 17:42:00,33.4,33.3,29.71,North,0,0.0,2.0,99,0.00,,,0.00,meteohub,2013-01-19 01:42:00,
2013-01-18 17:47:00,33.3,33.1,29.71,SW,225,1.0,2.0,99,0.00,,,0.00,meteohub,2013-01-19 01:47:00,
2013-01-18 17:52:00,33.3,33.1,29.71,South,180,1.0,2.0,99,0.00,,,0.00,meteohub,2013-01-19 01:52:00,
2013-01-18 17:57:00,33.3,33.1,29.71,SE,135,1.0,2.0,99,0.00,,,0.00,meteohub,2013-01-19 01:57:00,
2013-01-18 18:02:00,33.3,33.1,29.71,SE,135,2.0,2.0,99,0.00,,,0.00,meteohub,2013-01-19 02:02:00,
2013-01-18 18:08:00,33.1,32.5,29.71,SE,135,1.0,2.0,98,0.00,,,0.00,meteohub,2013-01-19 02:08:00,
2013-01-18 18:13:00,33.1,32.5,29.71,SE,135,0.0,2.0,98,0.00,,,0.00,meteohub,2013-01-19 02:13:00,
2013-01-18 18:18:00,33.1,32.5,29.71,South,180,2.0,2.0,98,0.00,,,0.00,meteohub,2013-01-19 02:18:00,
2013-01-18 18:23:00,33.1,32.5,29.71,SW,225,1.0,2.0,98,0.00,,,0.00,meteohub,2013-01-19 02:23:00,
2013-01-18 18:28:00,32.9,32.7,29.72,South,180,2.0,2.0,99,0.00,,,0.00,meteohub,2013-01-19 02:28:00,
2013-01-18 18:33:00,32.9,32.7,29.72,SW,225,0.0,2.0,99,0.00,,,0.00,meteohub,2013-01-19 02:33:00,
2013-01-18 18:38:00,32.9,32.7,29.72,West,270,1.0,2.0,99,0.00,,,0.00,meteohub,2013-01-19 02:38:00,
2013-01-18 18:43:00,32.9,32.7,29.71,West,270,0.0,2.0,99,0.00,,,0.00,meteohub,2013-01-19 02:43:00,
2013-01-18 18:48:00,32.9,32.7,29.72,SW,225,2.0,2.0,99,0.00,,,0.00,meteohub,2013-01-19 02:48:00,
2013-01-18 18:53:00,32.9,32.7,29.71,South,180,1.0,2.0,99,0.00,,,0.00,meteohub,2013-01-19 02:53:00,
2013-01-18 18:59:00,32.7,32.5,29.71,South,180,2.0,2.0,99,0.00,,,0.00,meteohub,2013-01-19 02:59:00,
2013-01-18 19:04:00,32.7,32.5,29.71,SW,225,0.0,2.0,99,0.00,,,0.00,meteohub,2013-01-19 03:04:00,
2013-01-18 19:09:00,32.7,32.5,29.72,NE,45,1.0,2.0,99,0.00,,,0.00,meteohub,2013-01-19 03:09:00,
2013-01-18 19:14:00,32.9,32.7,29.72,NE,45,0.0,2.0,99,0.00,,,0.00,meteohub,2013-01-19 03:14:00,
2013-01-18 19:19:00,32.9,32.7,29.72,South,180,2.0,2.0,99,0.00,,,0.00,meteohub,2013-01-19 03:19:00,
2013-01-18 19:24:00,32.7,32.5,29.72,South,180,0.0,2.0,99,0.00,,,0.00,meteohub,2013-01-19 03:24:00,
2013-01-18 19:29:00,32.7,32.5,29.72,West,270,3.0,3.0,99,0.00,,,0.00,meteohub,2013-01-19 03:29:00,
2013-01-18 19:34:00,32.7,32.5,29.72,South,180,1.0,2.0,99,0.00,,,0.00,meteohub,2013-01-19 03:34:00,
2013-01-18 19:39:00,32.5,32.4,29.72,South,180,0.0,3.0,99,0.00,,,0.00,meteohub,2013-01-19 03:39:00,
2013-01-18 19:45:00,32.7,32.5,29.72,East,90,0.0,3.0,99,0.00,,,0.00,meteohub,2013-01-19 03:45:00,
2013-01-18 19:50:00,32.7,32.5,29.72,East,90,0.0,2.0,99,0.00,,,0.00,meteohub,2013-01-19 03:50:00,
2013-01-18 19:55:00,32.7,32.5,29.72,ENE,68,1.0,2.0,99,0.00,,,0.00,meteohub,2013-01-19 03:55:00,
2013-01-18 20:00:00,32.9,32.7,29.72,NE,45,1.0,2.0,99,0.00,,,0.00,meteohub,2013-01-19 04:00:00,
2013-01-18 20:05:00,32.9,32.7,29.72,NE,45,2.0,2.0,99,0.00,,,0.00,meteohub,2013-01-19 04:05:00,
2013-01-18 20:10:00,32.7,32.5,29.72,NE,45,2.0,2.0,99,0.00,,,0.00,meteohub,2013-01-19 04:10:00,
2013-01-18 20:15:00,32.5,32.4,29.72,NE,45,3.0,3.0,99,0.00,,,0.00,meteohub,2013-01-19 04:15:00,
2013-01-18 20:20:00,32.2,32.0,29.72,North,0,2.0,3.0,99,0.00,,,0.00,meteohub,2013-01-19 04:20:00,
2013-01-18 20:25:00,32.0,31.8,29.72,NE,45,2.0,3.0,99,0.00,,,0.00,meteohub,2013-01-19 04:25:00,
2013-01-18 20:30:00,32.0,31.8,29.72,NE,45,1.0,3.0,99,0.00,,,0.00,meteohub,2013-01-19 04:30:00,
2013-01-18 20:36:00,32.2,32.0,29.72,NE,45,1.0,2.0,99,0.00,,,0.00,meteohub,2013-01-19 04:36:00,
2013-01-18 20:41:00,32.2,32.0,29.72,NE,45,2.0,2.0,99,0.00,,,0.00,meteohub,2013-01-19 04:41:00,
2013-01-18 20:46:00,32.2,32.0,29.73,NE,45,2.0,2.0,99,0.00,,,0.00,meteohub,2013-01-19 04:46:00,
2013-01-18 20:51:00,32.0,31.8,29.73,East,90,2.0,2.0,99,0.00,,,0.00,meteohub,2013-01-19 04:51:00,
2013-01-18 20:56:00,31.8,31.6,29.73,NE,45,0.0,2.0,99,0.00,,,0.00,meteohub,2013-01-19 04:56:00,
2013-01-18 21:01:00,31.8,31.6,29.73,NE,45,1.0,2.0,99,0.00,,,0.00,meteohub,2013-01-19 05:01:00,
2013-01-18 21:02:00,31.8,31.6,29.73,NE,45,1.0,2.0,99,0.00,,,0.00,meteohub,2013-01-19 05:02:00,
2013-01-18 21:03:00,31.8,31.6,29.73,East,90,2.0,2.0,99,0.00,,,0.00,meteohub,2013-01-19 05:03:00,
2013-01-18 21:04:00,31.8,31.6,29.73,NE,45,1.0,2.0,99,0.00,,,0.00,meteohub,2013-01-19 05:04:00,
2013-01-18 21:09:00,31.8,31.6,29.73,East,90,1.0,2.0,99,0.00,,,0.00,meteohub,2013-01-19 05:09:00,
2013-01-18 21:14:00,31.8,31.6,29.73,NE,45,2.0,2.0,99,0.00,,,0.00,meteohub,2013-01-19 05:14:00,
2013-01-18 21:19:00,31.8,31.6,29.73,South,180,0.0,2.0,99,0.00,,,0.00,meteohub,2013-01-19 05:19:00,
2013-01-18 21:24:00,31.8,31.6,29.73,South,180,1.0,2.0,99,0.00,,,0.00,meteohub,2013-01-19 05:24:00,
2013-01-18 21:30:00,31.6,31.5,29.73,SE,135,0.0,2.0,99,0.00,,,0.00,meteohub,2013-01-19 05:30:00,
2013-01-18 21:35:00,31.6,31.5,29.73,South,180,2.0,2.0,99,0.00,,,0.00,meteohub,2013-01-19 05:35:00,
2013-01-18 21:40:00,31.6,31.5,29.74,SW,225,2.0,2.0,99,0.00,,,0.00,meteohub,2013-01-19 05:40:00,
2013-01-18 21:45:00,31.6,31.5,29.73,SW,225,2.0,3.0,99,0.00,,,0.00,meteohub,2013-01-19 05:45:00,
2013-01-18 21:50:00,31.6,31.5,29.73,SE,135,0.0,4.0,99,0.00,,,0.00,meteohub,2013-01-19 05:50:00,
2013-01-18 21:56:00,31.6,31.5,29.73,South,180,2.0,4.0,99,0.00,,,0.00,meteohub,2013-01-19 05:56:00,
2013-01-18 22:01:00,31.6,31.5,29.73,South,180,2.0,4.0,99,0.00,,,0.00,meteohub,2013-01-19 06:01:00,
2013-01-18 22:06:00,31.5,31.3,29.73,NE,45,0.0,2.0,99,0.00,,,0.00,meteohub,2013-01-19 06:06:00,
2013-01-18 22:11:00,31.6,31.5,29.73,NE,45,0.0,2.0,99,0.00,,,0.00,meteohub,2013-01-19 06:11:00,
2013-01-18 22:16:00,31.6,31.5,29.73,South,180,2.0,2.0,99,0.00,,,0.00,meteohub,2013-01-19 06:16:00,
2013-01-18 22:21:00,31.6,31.5,29.73,East,90,2.0,2.0,99,0.00,,,0.00,meteohub,2013-01-19 06:21:00,
2013-01-18 22:26:00,31.6,31.5,29.73,East,90,2.0,2.0,99,0.00,,,0.00,meteohub,2013-01-19 06:26:00,
2013-01-18 22:31:00,31.5,31.3,29.73,NE,45,2.0,2.0,99,0.00,,,0.00,meteohub,2013-01-19 06:31:00,
2013-01-18 22:37:00,31.5,31.3,29.73,SE,135,0.0,2.0,99,0.00,,,0.00,meteohub,2013-01-19 06:37:00,
2013-01-18 22:42:00,31.3,31.1,29.73,NE,45,2.0,2.0,99,0.00,,,0.00,meteohub,2013-01-19 06:42:00,
2013-01-18 22:47:00,31.3,31.1,29.73,SE,135,2.0,2.0,99,0.00,,,0.00,meteohub,2013-01-19 06:47:00,
2013-01-18 22:52:00,31.3,31.1,29.73,SE,135,0.0,2.0,99,0.00,,,0.00,meteohub,2013-01-19 06:52:00,
2013-01-18 22:57:00,31.3,31.1,29.73,SE,135,1.0,2.0,99,0.00,,,0.00,meteohub,2013-01-19 06:57:00,
2013-01-18 23:02:00,31.3,31.1,29.73,South,180,0.0,2.0,99,0.00,,,0.00,meteohub,2013-01-19 07:02:00,
2013-01-18 23:07:00,31.3,31.1,29.73,North,0,2.0,2.0,99,0.00,,,0.00,meteohub,2013-01-19 07:07:00,
2013-01-18 23:12:00,31.3,31.1,29.73,North,0,0.0,2.0,99,0.00,,,0.00,meteohub,2013-01-19 07:12:00,
2013-01-18 23:17:00,31.3,30.7,29.73,NE,45,2.0,2.0,98,0.00,,,0.00,meteohub,2013-01-19 07:17:00,
2013-01-18 23:22:00,31.3,30.7,29.73,NE,45,1.0,2.0,98,0.00,,,0.00,meteohub,2013-01-19 07:22:00,
2013-01-18 23:27:00,31.3,30.7,29.73,NE,45,2.0,2.0,98,0.00,,,0.00,meteohub,2013-01-19 07:27:00,
2013-01-18 23:32:00,31.3,30.7,29.72,NE,45,2.0,2.0,98,0.00,,,0.00,meteohub,2013-01-19 07:32:00,
2013-01-18 23:37:00,31.1,30.6,29.72,East,90,2.0,4.0,98,0.00,,,0.00,meteohub,2013-01-19 07:37:00,
2013-01-18 23:42:00,31.1,30.6,29.73,NE,45,2.0,4.0,98,0.00,,,0.00,meteohub,2013-01-19 07:42:00,
2013-01-18 23:47:00,31.1,30.6,29.72,SE,135,1.0,4.0,98,0.00,,,0.00,meteohub,2013-01-19 07:47:00,
2013-01-18 23:52:00,31.1,30.6,29.72,SW,225,2.0,3.0,98,0.00,,,0.00,meteohub,2013-01-19 07:52:00,
2013-01-18 23:57:00,30.9,30.4,29.72,NW,315,0.0,3.0,98,0.00,,,0.00,meteohub,2013-01-19 07:57:00,